Time;durP1;ratioP1;P1;durP2;ratioP2;P2;SDS_P1;SDS_P2;PMS_P1;PMS_P2;Temp;Humidity;BMP_temperature;BMP_pressure;BME280_temperature;BME280_humidity;BME280_pressure;Samples;Min_cycle;Max_cycle;Signal;HPM_P1;HPM_P2
2022/07/26 00:00:00;;;;;;;4.30;3.60;;;;;;;20.86;47.93;97304.91;108460;1287;22448;-91
2022/07/26 00:02:51;;;;;;;7.00;4.00;;;;;;;20.82;48.27;97304.56;108374;1287;22400;-93
2022/07/26 00:05:19;;;;;;;5.20;4.00;;;;;;;20.79;48.47;97302.60;108432;1286;22417;-91
2022/07/26 00:07:47;;;;;;;4.90;4.00;;;;;;;20.77;48.33;97307.34;108446;1287;22239;-90
2022/07/26 00:10:15;;;;;;;8.10;3.50;;;;;;;20.75;48.51;97303.81;108441;1287;23073;-92
2022/07/26 00:12:43;;;;;;;7.80;4.10;;;;;;;20.72;48.67;97296.27;108360;1287;23021;-92
2022/07/26 00:15:12;;;;;;;6.20;3.90;;;;;;;20.70;48.72;97297.52;108429;1286;22460;-92
2022/07/26 00:17:40;;;;;;;6.10;3.50;;;;;;;20.67;48.80;97298.05;108358;1287;22889;-92
2022/07/26 00:20:08;;;;;;;6.50;3.70;;;;;;;20.66;49.02;97300.92;108347;1287;22253;-92
2022/07/26 00:22:38;;;;;;;5.50;3.80;;;;;;;20.63;48.94;97301.30;108463;1287;23216;-91
2022/07/26 00:25:07;;;;;;;4.80;3.60;;;;;;;20.61;48.95;97299.10;108423;1287;22283;-91
2022/07/26 00:27:36;;;;;;;5.80;3.90;;;;;;;20.57;49.10;97299.99;108427;1286;22394;-91
2022/07/26 00:30:06;;;;;;;7.20;4.20;;;;;;;20.55;49.22;97299.13;108421;1287;22426;-91
2022/07/26 00:32:35;;;;;;;5.20;4.10;;;;;;;20.52;49.29;97299.47;108359;1287;22447;-91
2022/07/26 00:35:05;;;;;;;6.50;3.80;;;;;;;20.46;49.22;97296.52;108437;1287;23243;-92
2022/07/26 00:37:33;;;;;;;10.70;3.70;;;;;;;20.40;49.45;97292.25;108203;1287;22235;-92
2022/07/26 00:40:01;;;;;;;5.70;3.70;;;;;;;20.33;49.94;97290.78;108347;1287;22321;-92
2022/07/26 00:42:29;;;;;;;6.60;4.10;;;;;;;20.26;49.82;97289.15;108457;1286;22484;-91
2022/07/26 00:44:57;;;;;;;6.50;4.20;;;;;;;20.21;50.16;97291.38;108342;1287;22467;-90
2022/07/26 00:47:25;;;;;;;6.70;4.00;;;;;;;20.17;50.15;97291.34;108475;1287;23184;-92
2022/07/26 00:49:53;;;;;;;5.40;4.10;;;;;;;20.07;50.39;97289.37;108397;1287;23185;-90
2022/07/26 00:52:21;;;;;;;6.70;4.00;;;;;;;19.96;50.44;97287.30;108488;1286;22586;-92
2022/07/26 00:54:50;;;;;;;7.50;4.20;;;;;;;19.92;51.44;97277.26;108309;1287;22332;-89
2022/07/26 00:57:19;;;;;;;5.50;4.20;;;;;;;19.84;51.31;97273.90;108348;1287;22464;-90
2022/07/26 00:59:48;;;;;;;7.00;4.50;;;;;;;19.79;51.24;97271.04;108209;1287;22273;-90
2022/07/26 01:02:17;;;;;;;6.60;4.30;;;;;;;19.74;52.27;97275.36;108378;1287;22527;-91
2022/07/26 01:04:46;;;;;;;10.00;4.60;;;;;;;19.66;51.98;97275.64;108352;1287;22323;-91
2022/07/26 01:07:14;;;;;;;6.30;4.50;;;;;;;19.59;52.34;97275.48;108345;1287;22535;-91
2022/07/26 01:09:43;;;;;;;6.00;4.30;;;;;;;19.56;52.44;97270.60;108473;1287;22427;-91
2022/07/26 01:12:11;;;;;;;8.00;4.60;;;;;;;19.48;52.78;97264.27;108399;1287;23035;-91
2022/07/26 01:14:43;;;;;;;6.60;4.60;;;;;;;19.43;52.71;97264.05;108557;1286;22532;-91
2022/07/26 01:17:12;;;;;;;6.10;4.30;;;;;;;19.42;52.57;97255.84;108341;1287;22450;-89
2022/07/26 01:19:41;;;;;;;6.30;4.30;;;;;;;19.40;52.54;97252.54;108109;1287;22455;-89
2022/07/26 01:22:09;;;;;;;8.40;4.90;;;;;;;19.42;52.59;97249.84;108303;1287;22465;-91
2022/07/26 01:24:41;;;;;;;6.30;4.90;;;;;;;19.41;52.68;97245.92;108095;1287;22457;-90
2022/07/26 01:27:09;;;;;;;8.80;4.30;;;;;;;19.39;53.19;97250.27;108413;1287;22552;-91
2022/07/26 01:29:37;;;;;;;6.20;4.30;;;;;;;19.38;53.70;97247.43;108306;1287;22401;-89
2022/07/26 01:32:06;;;;;;;7.10;4.60;;;;;;;19.36;53.52;97247.10;108409;1287;22415;-92
2022/07/26 01:34:34;;;;;;;5.80;4.40;;;;;;;19.36;53.69;97241.64;108454;1287;22931;-89
2022/07/26 01:37:04;;;;;;;7.10;4.40;;;;;;;19.36;53.59;97239.92;108738;1287;22479;-89
2022/07/26 01:39:32;;;;;;;7.30;4.80;;;;;;;19.36;53.67;97240.93;108512;1287;22371;-90
2022/07/26 01:42:04;;;;;;;8.40;4.70;;;;;;;19.36;54.06;97243.05;108553;1286;22367;-91
2022/07/26 01:44:32;;;;;;;5.20;4.20;;;;;;;19.30;53.95;97239.46;108459;1287;22407;-91
2022/07/26 01:47:03;;;;;;;5.70;4.40;;;;;;;19.26;53.72;97236.52;108604;1286;22312;-91
2022/07/26 01:49:31;;;;;;;6.40;4.50;;;;;;;19.24;54.07;97231.35;108503;1286;22275;-92
2022/07/26 01:51:59;;;;;;;7.90;4.90;;;;;;;19.24;53.98;97223.79;108599;1286;22190;-90
2022/07/26 01:54:28;;;;;;;7.40;4.50;;;;;;;19.21;53.96;97214.31;108241;1286;275935;-92
2022/07/26 01:56:56;;;;;;;7.30;4.60;;;;;;;19.24;53.89;97215.12;108449;1285;22320;-91
2022/07/26 01:59:24;;;;;;;6.60;4.70;;;;;;;19.23;53.92;97214.48;108433;1286;23127;-93
2022/07/26 02:01:52;;;;;;;6.80;4.20;;;;;;;19.26;54.50;97212.10;108596;1287;22276;-91
2022/07/26 02:07:06;;;;;;;6.40;4.60;;;;;;;19.26;53.99;97214.13;108328;1287;22542;-89
2022/07/26 02:09:40;;;;;;;6.50;4.70;;;;;;;19.25;54.44;97211.08;108367;1287;23006;-89
2022/07/26 02:12:08;;;;;;;8.50;5.20;;;;;;;19.24;54.41;97215.59;108383;1287;22220;-90
2022/07/26 02:14:36;;;;;;;5.90;4.80;;;;;;;19.25;54.49;97206.77;108368;1287;22569;-90
2022/07/26 02:17:04;;;;;;;6.70;4.80;;;;;;;19.26;54.35;97208.59;108395;1287;22412;-89
2022/07/26 02:19:32;;;;;;;5.90;4.50;;;;;;;19.27;54.33;97201.58;108491;1287;23059;-90
2022/07/26 02:22:00;;;;;;;7.70;4.50;;;;;;;19.24;54.36;97202.02;108433;1286;22395;-90
2022/07/26 02:24:28;;;;;;;8.60;5.10;;;;;;;19.22;54.60;97200.89;108400;1287;22418;-90
2022/07/26 02:26:58;;;;;;;5.80;4.80;;;;;;;19.18;54.58;97195.94;108319;1287;22257;-89
2022/07/26 02:29:27;;;;;;;7.40;4.70;;;;;;;19.13;54.81;97196.89;108320;1286;22329;-89
2022/07/26 02:31:55;;;;;;;5.50;4.70;;;;;;;19.09;54.78;97197.30;108427;1287;22319;-89
2022/07/26 02:35:04;;;;;;;9.50;5.00;;;;;;;19.04;55.22;97197.64;108317;1287;22243;-90
2022/07/26 02:38:53;;;;;;;5.80;4.60;;;;;;;18.90;55.16;97194.02;107143;1299;22300;-92
2022/07/26 02:42:41;;;;;;;7.90;5.10;;;;;;;18.82;55.36;97196.42;107162;1299;22528;-91
2022/07/26 02:46:11;;;;;;;7.30;4.60;;;;;;;18.76;55.64;97193.77;107159;1300;22419;-90
2022/07/26 02:49:59;;;;;;;8.10;5.80;;;;;;;18.67;55.59;97192.92;107158;1299;22274;-90
2022/07/26 02:53:48;;;;;;;6.90;4.90;;;;;;;18.58;55.71;97183.44;107158;1299;22300;-91
2022/07/26 02:57:38;;;;;;;6.80;4.40;;;;;;;18.48;56.04;97174.87;107269;1296;22376;-90
2022/07/26 03:00:46;;;;;;;7.20;5.00;;;;;;;18.46;56.21;97178.81;107349;1296;22599;-91
2022/07/26 03:03:15;;;;;;;6.40;4.70;;;;;;;18.50;56.55;97176.77;107250;1296;22282;-90
2022/07/26 03:05:43;;;;;;;8.10;4.90;;;;;;;18.57;56.65;97174.06;107317;1296;22488;-91
2022/07/26 03:08:11;;;;;;;6.40;5.10;;;;;;;18.66;57.24;97169.42;107335;1296;23120;-89
2022/07/26 03:10:39;;;;;;;7.40;5.00;;;;;;;18.78;57.06;97167.27;107334;1296;22386;-91
2022/07/26 03:13:07;;;;;;;6.70;5.30;;;;;;;18.84;56.85;97168.91;107319;1297;22291;-90
2022/07/26 03:15:36;;;;;;;6.40;5.10;;;;;;;18.87;57.08;97165.36;108034;1288;22283;-89
2022/07/26 03:18:03;;;;;;;7.30;5.00;;;;;;;18.93;57.04;97155.77;108293;1288;23103;-90
2022/07/26 03:20:31;;;;;;;5.70;5.00;;;;;;;18.93;56.75;97160.21;108288;1288;22317;-90
2022/07/26 03:22:59;;;;;;;7.60;5.00;;;;;;;18.92;56.98;97158.02;108271;1288;22906;-91
2022/07/26 03:25:27;;;;;;;8.60;4.80;;;;;;;18.97;57.01;97155.74;108322;1287;22337;-90
2022/07/26 03:27:58;;;;;;;7.10;4.80;;;;;;;19.04;57.03;97155.35;108316;1288;22388;-91
2022/07/26 03:30:26;;;;;;;7.80;5.20;;;;;;;19.05;57.03;97155.36;108311;1288;22323;-90
2022/07/26 03:32:54;;;;;;;7.10;4.80;;;;;;;19.05;57.06;97157.70;108281;1288;22408;-90
2022/07/26 03:35:22;;;;;;;7.90;5.40;;;;;;;19.07;56.92;97153.05;108301;1287;22888;-90
2022/07/26 03:37:50;;;;;;;6.30;5.00;;;;;;;19.09;57.06;97147.84;108225;1288;22398;-91
2022/07/26 03:40:19;;;;;;;7.30;5.30;;;;;;;19.13;57.13;97150.00;108237;1288;22396;-91
2022/07/26 03:42:47;;;;;;;8.80;5.10;;;;;;;19.14;57.32;97146.80;108299;1287;22288;-88
2022/07/26 03:45:16;;;;;;;7.50;5.80;;;;;;;19.13;57.41;97146.34;108225;1288;22388;-90
2022/07/26 03:47:45;;;;;;;12.20;6.90;;;;;;;19.14;57.76;97145.55;108265;1288;22301;-91
2022/07/26 03:50:13;;;;;;;30.00;27.00;;;;;;;19.14;57.66;97147.34;108311;1288;22385;-89
2022/07/26 03:52:41;;;;;;;15.90;14.40;;;;;;;19.12;57.72;97145.30;108248;1287;22470;-89
2022/07/26 03:57:56;;;;;;;12.30;5.50;;;;;;;19.12;57.62;97145.30;108334;1287;22401;-90
2022/07/26 04:00:25;;;;;;;8.80;6.10;;;;;;;19.09;58.30;97142.86;108468;1286;22288;-91
2022/07/26 04:02:53;;;;;;;7.50;6.20;;;;;;;19.05;58.33;97139.45;108318;1287;22292;-91
2022/07/26 04:05:21;;;;;;;9.30;5.70;;;;;;;19.05;58.58;97139.91;108319;1287;22248;-90
2022/07/26 04:07:52;;;;;;;6.30;5.20;;;;;;;19.05;58.56;97139.62;108432;1287;22431;-90
2022/07/26 04:10:21;;;;;;;8.90;5.20;;;;;;;19.04;59.07;97138.12;108469;1286;22297;-89
2022/07/26 04:12:49;;;;;;;7.00;5.10;;;;;;;19.10;59.12;97142.16;108334;1287;22498;-91
2022/07/26 04:15:19;;;;;;;13.90;5.80;;;;;;;19.13;59.38;97145.54;108427;1286;22381;-91
2022/07/26 04:17:47;;;;;;;10.10;5.90;;;;;;;19.15;59.65;97143.00;108422;1287;22445;-89
2022/07/26 04:20:16;;;;;;;8.20;5.50;;;;;;;19.19;59.83;97145.23;108321;1287;22306;-90
2022/07/26 04:22:44;;;;;;;8.00;5.10;;;;;;;19.20;59.85;97142.04;108267;1287;22277;-90
2022/07/26 04:25:12;;;;;;;10.90;5.30;;;;;;;19.22;59.80;97139.88;108177;1288;22315;-92
2022/07/26 04:27:40;;;;;;;9.00;5.50;;;;;;;19.23;59.90;97138.33;108457;1287;22337;-90
2022/07/26 04:30:09;;;;;;;10.00;6.40;;;;;;;19.21;59.94;97136.35;108526;1287;22926;-90
2022/07/26 04:32:43;;;;;;;10.40;6.10;;;;;;;19.23;60.13;97138.31;108362;1287;22360;-89
2022/07/26 04:35:14;;;;;;;7.90;6.00;;;;;;;19.26;60.51;97136.64;108312;1287;22389;-89
2022/07/26 04:38:07;;;;;;;7.30;5.90;;;;;;;19.37;60.71;97137.05;108298;1287;22175;-90
2022/07/26 04:40:35;;;;;;;9.00;6.10;;;;;;;19.53;60.58;97140.35;108396;1286;23022;-90
2022/07/26 04:43:08;;;;;;;12.30;6.10;;;;;;;19.67;60.58;97139.09;108292;1286;22360;-88
2022/07/26 04:45:47;;;;;;;8.00;5.60;;;;;;;19.81;60.78;97137.35;108284;1286;22520;-91
2022/07/26 04:48:15;;;;;;;12.50;5.60;;;;;;;19.94;60.90;97135.12;108295;1287;23022;-90
2022/07/26 04:50:43;;;;;;;8.70;5.80;;;;;;;20.06;61.02;97136.67;108231;1288;22411;-90
2022/07/26 04:53:11;;;;;;;11.40;5.90;;;;;;;20.22;61.17;97133.76;108311;1287;23298;-89
2022/07/26 04:55:40;;;;;;;9.20;6.70;;;;;;;20.40;61.08;97134.40;108355;1287;22290;-91
2022/07/26 04:58:09;;;;;;;11.70;7.20;;;;;;;20.54;61.03;97136.92;108288;1287;22268;-90
2022/07/26 05:00:37;;;;;;;12.60;6.60;;;;;;;20.71;60.89;97135.86;108286;1287;22306;-91
2022/07/26 05:03:25;;;;;;;12.10;7.40;;;;;;;20.93;60.91;97141.97;108278;1287;22442;-90
2022/07/26 05:05:53;;;;;;;10.20;6.90;;;;;;;21.11;60.81;97144.53;108351;1287;22388;-91
2022/07/26 05:08:21;;;;;;;13.10;7.10;;;;;;;21.31;60.81;97139.28;108297;1287;22360;-88
2022/07/26 05:10:49;;;;;;;9.60;7.00;;;;;;;21.47;60.58;97139.81;108310;1287;22288;-89
2022/07/26 05:13:22;;;;;;;11.10;7.90;;;;;;;21.62;60.35;97145.48;108393;1286;23242;-90
2022/07/26 05:15:58;;;;;;;10.20;7.70;;;;;;;21.80;60.20;97145.56;108419;1287;22255;-89
2022/07/26 05:18:28;;;;;;;9.50;6.60;;;;;;;21.96;60.30;97145.02;108336;1287;22193;-90
2022/07/26 05:21:03;;;;;;;11.80;7.50;;;;;;;22.20;60.05;97150.77;108297;1287;23429;-90
2022/07/26 05:23:30;;;;;;;15.10;7.70;;;;;;;22.48;59.81;97153.55;108397;1286;22381;-90
2022/07/26 05:25:58;;;;;;;13.60;6.70;;;;;;;22.73;59.61;97153.31;108279;1287;22407;-90
2022/07/26 05:28:26;;;;;;;45.30;9.30;;;;;;;22.89;59.57;97158.37;108411;1286;22951;-89
2022/07/26 05:30:54;;;;;;;30.70;7.80;;;;;;;23.08;59.32;97162.02;108338;1286;22314;-90
2022/07/26 05:33:22;;;;;;;28.40;8.00;;;;;;;23.28;59.02;97157.45;108322;1287;22326;-89
2022/07/26 05:35:50;;;;;;;27.60;7.20;;;;;;;23.41;58.96;97163.11;108444;1286;22300;-90
2022/07/26 05:38:19;;;;;;;32.60;8.30;;;;;;;23.53;58.51;97176.55;108221;1287;22394;-91
2022/07/26 05:40:47;;;;;;;22.70;6.40;;;;;;;23.61;58.11;97188.37;108464;1287;22422;-89
2022/07/26 05:43:18;;;;;;;25.70;10.00;;;;;;;23.61;57.77;97196.70;107967;1288;22434;-90
2022/07/26 05:45:46;;;;;;;17.00;7.70;;;;;;;23.57;57.19;97197.52;108363;1287;22380;-90
2022/07/26 05:48:14;;;;;;;15.00;8.80;;;;;;;23.56;57.21;97206.48;108371;1285;22312;-90
2022/07/26 05:50:42;;;;;;;26.10;12.50;;;;;;;23.55;56.67;97221.16;108374;1287;22385;-91
2022/07/26 05:53:10;;;;;;;19.90;11.30;;;;;;;23.49;55.70;97232.34;108146;1288;22517;-91
2022/07/26 05:55:38;;;;;;;14.60;7.90;;;;;;;23.40;55.69;97235.06;108428;1286;22238;-91
2022/07/26 05:58:06;;;;;;;13.10;8.10;;;;;;;23.31;55.62;97238.17;108451;1287;22466;-90
2022/07/26 06:00:34;;;;;;;13.70;7.40;;;;;;;23.23;55.64;97228.84;108377;1287;23167;-90
2022/07/26 06:03:20;;;;;;;14.20;8.30;;;;;;;23.18;55.59;97230.29;108496;1286;22277;-91
2022/07/26 06:05:55;;;;;;;12.40;7.70;;;;;;;23.13;55.02;97231.33;108512;1286;22345;-91
2022/07/26 06:08:25;;;;;;;14.20;7.20;;;;;;;23.09;55.14;97223.89;108415;1287;22273;-90
2022/07/26 06:10:53;;;;;;;12.00;7.20;;;;;;;23.18;55.27;97227.16;108482;1286;23147;-92
2022/07/26 06:13:22;;;;;;;16.50;7.10;;;;;;;23.32;55.38;97238.23;108360;1287;22389;-91
2022/07/26 06:15:50;;;;;;;14.90;7.70;;;;;;;23.47;54.90;97243.13;108559;1286;22472;-91
2022/07/26 06:19:10;;;;;;;11.30;7.40;;;;;;;23.54;54.72;97240.19;108443;1287;23118;-91
2022/07/26 06:21:38;;;;;;;12.50;8.20;;;;;;;23.48;53.97;97247.67;108461;1287;22785;-90
2022/07/26 06:24:06;;;;;;;20.50;9.30;;;;;;;23.45;53.99;97249.73;108333;1287;22320;-92
2022/07/26 06:26:35;;;;;;;19.20;9.60;;;;;;;23.53;53.60;97255.66;108368;1288;22338;-92
2022/07/26 06:29:03;;;;;;;11.40;7.80;;;;;;;23.59;53.27;97250.38;108661;1287;22330;-90
2022/07/26 06:31:31;;;;;;;20.30;10.60;;;;;;;23.50;53.50;97247.12;108673;1287;22534;-91
2022/07/26 06:33:59;;;;;;;18.30;9.60;;;;;;;23.54;53.43;97246.40;108581;1287;22318;-92
2022/07/26 06:36:27;;;;;;;11.80;8.30;;;;;;;23.56;53.61;97251.48;108614;1287;23120;-94
2022/07/26 06:38:57;;;;;;;13.10;9.10;;;;;;;23.61;53.57;97259.64;108661;1287;22540;-91
2022/07/26 06:41:25;;;;;;;17.50;8.60;;;;;;;23.67;53.65;97260.33;108673;1287;22445;-93
2022/07/26 06:43:53;;;;;;;17.80;8.60;;;;;;;23.78;53.61;97266.49;108666;1286;22738;-90
2022/07/26 06:46:22;;;;;;;15.90;9.00;;;;;;;23.88;53.58;97268.16;108693;1287;22380;-90
2022/07/26 06:48:51;;;;;;;14.30;7.40;;;;;;;23.90;53.64;97264.06;108665;1287;22318;-91
2022/07/26 06:51:24;;;;;;;14.80;8.60;;;;;;;24.00;53.77;97264.70;108691;1287;22526;-89
2022/07/26 06:53:52;;;;;;;14.70;8.50;;;;;;;24.10;53.68;97274.09;108446;1281;22455;-90
2022/07/26 06:56:20;;;;;;;13.20;8.40;;;;;;;24.20;53.92;97268.67;108543;1287;22336;-92
2022/07/26 06:58:50;;;;;;;11.40;8.50;;;;;;;24.39;53.70;97270.18;108538;1287;22493;-90
2022/07/26 07:01:18;;;;;;;10.70;8.60;;;;;;;24.56;53.23;97282.58;108556;1287;22311;-91
2022/07/26 07:04:07;;;;;;;13.30;8.20;;;;;;;24.60;52.54;97286.72;108660;1278;22496;-88
2022/07/26 07:06:35;;;;;;;15.00;8.50;;;;;;;24.58;52.27;97294.59;108742;1286;22352;-93
2022/07/26 07:09:03;;;;;;;13.60;9.30;;;;;;;24.62;52.44;97295.21;108527;1281;22455;-88
2022/07/26 07:11:35;;;;;;;13.30;8.80;;;;;;;24.62;52.27;97300.71;108460;1277;23814;-90
2022/07/26 07:14:04;;;;;;;13.70;8.90;;;;;;;24.61;52.50;97299.54;108567;1277;22571;-89
2022/07/26 07:16:33;;;;;;;14.00;9.20;;;;;;;24.66;52.59;97300.91;108737;1278;22527;-90
2022/07/26 07:19:01;;;;;;;14.10;8.70;;;;;;;24.73;52.77;97315.19;108722;1287;22499;-89
2022/07/26 07:21:29;;;;;;;13.80;9.00;;;;;;;24.75;53.11;97321.31;108742;1287;23188;-92
2022/07/26 07:23:57;;;;;;;10.40;8.60;;;;;;;24.64;53.39;97329.73;108635;1287;22397;-91
2022/07/26 07:26:25;;;;;;;15.30;9.60;;;;;;;24.47;53.95;97333.88;108681;1287;22406;-92
2022/07/26 07:28:53;;;;;;;16.90;10.00;;;;;;;24.33;55.01;97346.92;108652;1287;23278;-91
2022/07/26 07:31:24;;;;;;;13.70;8.90;;;;;;;24.18;55.92;97349.85;108365;1288;22311;-93
2022/07/26 07:34:16;;;;;;;14.90;9.90;;;;;;;24.00;56.57;97344.99;108321;1288;22318;-92
2022/07/26 07:36:46;;;;;;;16.60;9.50;;;;;;;23.89;57.63;97354.09;108337;1288;22316;-93
2022/07/26 07:39:15;;;;;;;13.30;10.10;;;;;;;23.79;58.00;97355.46;108663;1287;22442;-92
2022/07/26 07:41:45;;;;;;;14.50;11.10;;;;;;;23.65;59.60;97374.03;108678;1287;22298;-93
2022/07/26 07:44:14;;;;;;;12.80;10.60;;;;;;;23.46;60.98;97366.77;108520;1287;22508;-85
2022/07/26 07:46:42;;;;;;;16.20;10.10;;;;;;;23.31;61.87;97389.83;108531;1287;22302;-87
2022/07/26 07:49:10;;;;;;;13.30;10.30;;;;;;;23.25;62.75;97375.38;108575;1287;23172;-85
2022/07/26 07:51:39;;;;;;;12.90;9.90;;;;;;;23.22;63.21;97383.17;108519;1287;22473;-83
2022/07/26 07:54:08;;;;;;;12.50;11.20;;;;;;;23.17;63.53;97390.78;108613;1287;22375;-85
2022/07/26 07:56:36;;;;;;;18.00;12.90;;;;;;;23.13;63.66;97393.38;108589;1287;22566;-86
2022/07/26 07:59:06;;;;;;;14.10;12.50;;;;;;;23.09;64.05;97406.50;108701;1285;22508;-83
2022/07/26 08:01:34;;;;;;;15.00;13.10;;;;;;;22.89;64.63;97392.96;108596;1287;22524;-87
2022/07/26 08:04:08;;;;;;;14.70;12.60;;;;;;;22.63;65.79;97395.77;108737;1287;22447;-83
2022/07/26 08:06:36;;;;;;;19.10;13.00;;;;;;;22.41;66.98;97406.25;108600;1287;22309;-86
2022/07/26 08:09:07;;;;;;;15.60;12.40;;;;;;;22.19;67.45;97416.52;108504;1287;22404;-86
2022/07/26 08:11:40;;;;;;;14.20;12.70;;;;;;;22.12;68.07;97417.83;108612;1289;22433;-81
2022/07/26 08:14:09;;;;;;;15.60;12.50;;;;;;;21.96;68.80;97429.67;108586;1288;22480;-87
2022/07/26 08:16:40;;;;;;;14.00;12.60;;;;;;;21.86;69.51;97431.66;108744;1286;22380;-84
2022/07/26 08:19:08;;;;;;;17.40;15.80;;;;;;;21.71;70.47;97433.08;108588;1288;22336;-86
2022/07/26 08:21:37;;;;;;;19.60;16.00;;;;;;;21.53;70.62;97435.23;108579;1288;22313;-84
2022/07/26 08:24:06;;;;;;;18.30;16.60;;;;;;;21.39;70.16;97437.64;108472;1289;22369;-86
2022/07/26 08:26:34;;;;;;;15.90;14.30;;;;;;;21.34;71.40;97441.52;108618;1288;22343;-85
2022/07/26 08:29:02;;;;;;;20.30;16.30;;;;;;;21.27;71.52;97442.47;108615;1288;22352;-86
2022/07/26 08:31:30;;;;;;;17.40;15.70;;;;;;;21.22;71.54;97439.63;108509;1290;22434;-85
2022/07/26 08:34:50;;;;;;;18.30;16.40;;;;;;;21.17;71.67;97440.36;108623;1288;22541;-87
2022/07/26 08:37:18;;;;;;;19.10;17.30;;;;;;;21.16;73.07;97447.17;108553;1286;23676;-87
2022/07/26 08:39:47;;;;;;;17.90;15.60;;;;;;;21.18;73.59;97444.36;108332;1288;22469;-87
2022/07/26 08:42:17;;;;;;;16.80;14.80;;;;;;;21.29;73.22;97442.02;108334;1288;22357;-89
2022/07/26 08:44:51;;;;;;;17.50;13.80;;;;;;;21.52;72.45;97444.70;108349;1288;22353;-85
2022/07/26 08:47:21;;;;;;;15.50;13.90;;;;;;;21.65;71.94;97452.47;108456;1288;22291;-91
2022/07/26 08:50:07;;;;;;;17.00;13.30;;;;;;;21.72;71.96;97446.64;108302;1288;22414;-92
2022/07/26 08:52:39;;;;;;;14.50;13.20;;;;;;;21.76;71.60;97449.77;108596;1286;22279;-89
2022/07/26 08:58:54;;;;;;;;;;;;;;;21.75;71.77;97463.65;108481;1287;22351;-89
2022/07/26 09:01:22;;;;;;;13.90;12.40;;;;;;;21.59;71.97;97471.85;108351;1287;23136;-88
2022/07/26 09:03:50;;;;;;;13.70;12.50;;;;;;;21.43;72.46;97463.20;108310;1288;22305;-89
2022/07/26 09:06:21;;;;;;;14.50;12.50;;;;;;;21.43;72.67;97475.10;108421;1288;22451;-92
2022/07/26 09:09:09;;;;;;;13.90;12.50;;;;;;;21.29;73.00;97468.08;108430;1287;23085;-91
2022/07/26 09:11:38;;;;;;;12.00;11.00;;;;;;;21.19;73.54;97474.27;108341;1288;22396;-90
2022/07/26 09:14:06;;;;;;;13.30;11.00;;;;;;;21.12;74.19;97472.96;108254;1288;22411;-87
2022/07/26 09:16:34;;;;;;;11.70;10.60;;;;;;;21.10;73.98;97473.42;108369;1286;22431;-88
2022/07/26 09:19:23;;;;;;;10.80;9.70;;;;;;;21.23;74.38;97480.64;108231;1288;22386;-87
2022/07/26 09:21:53;;;;;;;12.40;11.10;;;;;;;21.20;74.05;97486.65;108352;1287;22482;-88
2022/07/26 09:24:36;;;;;;;12.70;11.70;;;;;;;21.17;74.15;97490.77;108234;1288;22393;-90
2022/07/26 09:27:12;;;;;;;13.60;12.50;;;;;;;21.08;74.64;97489.83;108132;1288;22327;-90
2022/07/26 09:29:52;;;;;;;15.00;13.80;;;;;;;21.05;74.61;97496.30;108224;1288;23165;-89
2022/07/26 09:32:25;;;;;;;16.50;14.90;;;;;;;21.02;75.03;97491.80;108226;1287;22414;-89
2022/07/26 09:34:56;;;;;;;18.10;16.60;;;;;;;20.88;74.76;97498.10;108085;1288;22451;-88
2022/07/26 09:37:33;;;;;;;15.40;14.10;;;;;;;20.80;74.72;97502.71;108122;1288;22993;-90
2022/07/26 09:40:05;;;;;;;16.30;15.00;;;;;;;20.83;75.58;97505.48;108253;1288;22298;-86
2022/07/26 09:42:34;;;;;;;17.70;16.00;;;;;;;20.84;76.14;97502.35;108207;1288;22418;-89
2022/07/26 09:45:15;;;;;;;18.50;17.00;;;;;;;20.80;76.38;97505.45;108127;1288;22522;-87
2022/07/26 09:47:43;;;;;;;17.40;16.00;;;;;;;20.68;77.14;97508.13;108232;1288;23138;-90
2022/07/26 09:50:16;;;;;;;18.20;16.70;;;;;;;20.53;77.32;97516.87;108232;1287;22304;-90
2022/07/26 09:53:06;;;;;;;;;;;;;;;20.47;77.36;97519.91;108288;1287;22306;-90
2022/07/26 09:55:36;;;;;;;20.20;18.50;;;;;;;20.46;77.97;97527.09;108366;1287;22412;-89
2022/07/26 09:58:15;;;;;;;21.90;20.20;;;;;;;20.39;77.95;97530.39;108189;1288;22304;-86
2022/07/26 10:00:44;;;;;;;22.90;20.70;;;;;;;20.40;78.21;97528.43;108234;1287;22489;-90
2022/07/26 10:03:12;;;;;;;22.20;20.20;;;;;;;20.42;78.93;97529.39;108043;1288;22287;-90
2022/07/26 10:05:40;;;;;;;23.70;21.60;;;;;;;20.39;79.54;97534.84;108120;1288;22411;-87
2022/07/26 10:08:10;;;;;;;24.00;22.10;;;;;;;20.30;80.43;97540.27;108194;1287;23197;-86
2022/07/26 10:10:47;;;;;;;27.00;24.80;;;;;;;20.23;80.29;97538.45;108219;1288;22325;-89
2022/07/26 10:13:15;;;;;;;27.80;25.60;;;;;;;20.22;80.69;97543.52;108238;1287;23170;-88
2022/07/26 10:15:48;;;;;;;24.60;22.70;;;;;;;20.19;80.41;97550.61;108234;1288;22315;-89
2022/07/26 10:18:34;;;;;;;26.20;24.10;;;;;;;20.15;81.57;97555.86;108101;1288;22392;-87
2022/07/26 10:21:14;;;;;;;24.40;22.40;;;;;;;20.15;81.42;97546.71;108228;1287;22666;-88
2022/07/26 10:23:45;;;;;;;26.60;24.20;;;;;;;20.14;81.54;97553.66;108204;1287;22260;-89
2022/07/26 10:26:31;;;;;;;24.70;22.70;;;;;;;20.07;81.83;97556.61;108307;1287;23044;-88
2022/07/26 10:29:22;;;;;;;23.20;21.50;;;;;;;20.04;82.13;97562.20;108191;1287;22348;-89
2022/07/26 10:32:01;;;;;;;23.50;21.70;;;;;;;20.01;81.74;97564.58;108220;1288;22455;-89
2022/07/26 10:34:35;;;;;;;20.10;18.50;;;;;;;20.07;82.39;97570.66;108222;1288;23274;-86
2022/07/26 10:37:18;;;;;;;20.30;18.50;;;;;;;20.08;82.40;97572.96;108201;1288;23554;-90
2022/07/26 10:39:46;;;;;;;19.00;17.40;;;;;;;20.06;82.10;97569.71;108195;1287;22369;-88
2022/07/26 10:42:14;;;;;;;17.40;15.90;;;;;;;20.07;81.55;97579.41;108239;1288;22397;-86
2022/07/26 10:44:44;;;;;;;17.60;16.20;;;;;;;20.14;81.94;97577.02;108216;1288;22547;-88
2022/07/26 10:47:17;;;;;;;16.50;15.00;;;;;;;20.15;81.60;97576.04;108229;1287;22364;-87
2022/07/26 10:49:57;;;;;;;16.20;14.80;;;;;;;20.13;81.41;97586.01;108208;1287;22319;-87
2022/07/26 10:52:30;;;;;;;14.20;12.90;;;;;;;20.12;81.82;97583.88;108116;1288;22415;-88
2022/07/26 10:54:57;;;;;;;14.20;12.80;;;;;;;20.12;82.48;97583.32;108218;1288;22457;-87
2022/07/26 10:57:43;;;;;;;13.00;11.80;;;;;;;20.09;82.70;97579.06;108308;1288;22392;-89
2022/07/26 11:00:19;;;;;;;12.90;11.70;;;;;;;20.08;82.30;97580.84;108139;1288;22452;-88
2022/07/26 11:02:51;;;;;;;12.90;11.70;;;;;;;20.11;81.73;97580.50;108353;1286;22366;-91
2022/07/26 11:05:21;;;;;;;12.80;11.60;;;;;;;20.13;81.46;97579.83;108118;1288;22855;-87
2022/07/26 11:08:09;;;;;;;12.40;11.20;;;;;;;20.15;81.46;97586.35;108226;1288;22321;-86
2022/07/26 11:10:39;;;;;;;11.10;10.10;;;;;;;20.12;81.52;97579.66;108363;1287;22301;-88
2022/07/26 11:13:08;;;;;;;14.30;13.00;;;;;;;20.19;82.07;97581.16;108242;1288;22432;-89
2022/07/26 11:15:39;;;;;;;11.70;10.70;;;;;;;20.24;82.60;97577.94;108223;1288;22411;-88
2022/07/26 11:18:08;;;;;;;11.30;10.20;;;;;;;20.21;82.51;97581.81;108186;1287;23059;-87
2022/07/26 11:20:37;;;;;;;10.30;9.30;;;;;;;20.19;83.46;97574.83;108205;1287;22417;-87
2022/07/26 11:23:22;;;;;;;10.70;8.90;;;;;;;20.12;83.01;97580.91;108343;1287;23001;-87
2022/07/26 11:26:07;;;;;;;9.80;9.00;;;;;;;20.14;84.29;97571.95;108299;1287;23085;-87
2022/07/26 11:28:49;;;;;;;10.40;9.30;;;;;;;20.06;84.31;97568.39;108297;1287;22335;-85
2022/07/26 11:31:18;;;;;;;10.80;9.70;;;;;;;20.07;84.76;97567.85;108288;1286;22424;-88
2022/07/26 11:33:52;;;;;;;11.10;10.10;;;;;;;20.06;85.58;97569.10;108216;1287;22365;-89
2022/07/26 11:36:38;;;;;;;10.00;9.10;;;;;;;20.03;86.06;97567.66;108200;1288;22434;-87
2022/07/26 11:39:12;;;;;;;11.50;10.40;;;;;;;20.01;86.75;97564.96;108225;1287;22404;-87
2022/07/26 11:41:41;;;;;;;12.20;11.10;;;;;;;20.00;87.13;97566.83;108245;1288;22346;-87
2022/07/26 11:44:17;;;;;;;24.70;21.90;;;;;;;19.97;86.91;97569.67;108208;1288;22261;-85
2022/07/26 11:46:46;;;;;;;36.10;32.70;;;;;;;19.96;86.86;97568.02;108091;1286;22618;-86
2022/07/26 11:49:28;;;;;;;38.90;35.60;;;;;;;19.99;87.44;97568.63;108185;1287;22426;-84
2022/07/26 11:52:17;;;;;;;16.20;14.60;;;;;;;20.00;88.02;97569.86;108190;1288;23654;-88